createdAt,value
2022-11-20T00:01:26.599Z,96.40
2022-11-20T00:03:56.091Z,97.00
2022-11-20T00:06:23.932Z,97.50
2022-11-20T00:08:52.038Z,97.00
2022-11-20T00:11:22.667Z,96.50
2022-11-20T00:13:52.334Z,97.10
2022-11-20T00:16:25.409Z,97.20
2022-11-20T00:18:53.286Z,96.80
2022-11-20T00:21:24.508Z,96.80
2022-11-20T00:23:54.969Z,97.10
2022-11-20T00:26:24.129Z,96.90
2022-11-20T00:29:00.137Z,97.00
2022-11-20T00:31:28.613Z,97.80
2022-11-20T00:33:56.526Z,96.70
2022-11-20T00:36:27.097Z,97.20
2022-11-20T00:38:56.895Z,97.20
2022-11-20T00:41:25.817Z,97.20
2022-11-20T00:43:54.948Z,97.00
2022-11-20T00:46:26.130Z,97.20
2022-11-20T00:48:54.072Z,96.80
2022-11-20T00:51:24.455Z,96.70
2022-11-20T00:53:53.096Z,97.10
2022-11-20T00:56:21.296Z,97.20
2022-11-20T00:58:50.239Z,96.80
2022-11-20T01:01:26.000Z,98.30
2022-11-20T01:03:57.093Z,97.60
2022-11-20T01:06:26.397Z,97.80
2022-11-20T01:08:56.886Z,97.70
2022-11-20T01:11:30.723Z,98.20
2022-11-20T01:13:59.531Z,98.90
2022-11-20T01:16:33.463Z,97.30
2022-11-20T01:19:03.092Z,97.80
2022-11-20T01:21:33.652Z,97.70
2022-11-20T01:24:03.939Z,97.60
2022-11-20T01:26:35.799Z,96.90
2022-11-20T01:29:04.215Z,97.20
2022-11-20T01:31:34.054Z,96.90
2022-11-20T01:34:07.459Z,97.10
2022-11-20T01:36:36.724Z,97.30
2022-11-20T01:39:06.961Z,97.20
2022-11-20T01:41:54.010Z,97.20
2022-11-20T01:44:42.981Z,97.20
2022-11-20T01:47:15.501Z,97.40
2022-11-20T01:50:17.784Z,97.90
2022-11-20T01:52:57.563Z,97.70
2022-11-20T01:55:38.482Z,97.60
2022-11-20T01:58:06.518Z,97.80
2022-11-20T02:00:34.235Z,96.90
2022-11-20T02:03:06.181Z,97.50
2022-11-20T02:05:56.343Z,97.40
2022-11-20T02:08:24.803Z,97.70
2022-11-20T02:10:52.192Z,97.20
2022-11-20T02:13:38.318Z,96.80
2022-11-20T02:16:09.738Z,96.50
2022-11-20T02:18:39.323Z,97.80
2022-11-20T02:21:34.360Z,97.10
2022-11-20T02:24:24.646Z,97.90
2022-11-20T02:26:55.800Z,97.50
2022-11-20T02:29:31.948Z,97.60
2022-11-20T02:32:21.281Z,97.90
2022-11-20T02:34:48.748Z,97.30
2022-11-20T02:37:17.586Z,96.80
2022-11-20T02:39:47.794Z,97.30
2022-11-20T02:42:15.235Z,97.40
2022-11-20T02:44:42.571Z,97.10
2022-11-20T02:47:10.401Z,97.00
2022-11-20T02:49:37.720Z,97.00
2022-11-20T02:52:06.462Z,96.90
2022-11-20T02:54:34.295Z,97.00
2022-11-20T02:57:01.690Z,96.90
2022-11-20T02:59:30.132Z,96.90
2022-11-20T03:01:57.534Z,96.70
2022-11-20T03:04:24.885Z,96.90
2022-11-20T03:06:52.459Z,96.90
2022-11-20T03:09:20.098Z,97.10
2022-11-20T03:11:47.627Z,97.10
2022-11-20T03:14:15.244Z,96.80
2022-11-20T03:16:42.556Z,96.90
2022-11-20T03:19:09.900Z,96.90
2022-11-20T03:21:37.372Z,97.00
2022-11-20T03:24:04.959Z,97.00
2022-11-20T03:26:32.729Z,97.00
2022-11-20T03:29:01.923Z,97.00
2022-11-20T03:31:34.591Z,97.40
2022-11-20T03:34:03.291Z,97.40
2022-11-20T03:36:31.440Z,97.80
2022-11-20T03:38:59.214Z,97.10
2022-11-20T03:41:29.355Z,97.10
2022-11-20T03:44:02.295Z,97.80
2022-11-20T03:46:30.168Z,97.80
2022-11-20T03:48:57.658Z,97.20
2022-11-20T03:51:28.011Z,96.90
2022-11-20T03:53:58.929Z,97.40
2022-11-20T03:56:31.077Z,97.10
2022-11-20T03:58:59.063Z,97.90
2022-11-20T04:01:32.151Z,97.20
2022-11-20T04:03:59.928Z,97.40
2022-11-20T04:06:38.469Z,97.00
2022-11-20T04:09:07.032Z,98.10
2022-11-20T04:11:36.599Z,97.50
2022-11-20T04:14:06.871Z,97.60
2022-11-20T04:16:37.119Z,97.60
2022-11-20T04:19:10.250Z,97.70
2022-11-20T04:21:37.581Z,97.60
2022-11-20T04:24:05.311Z,97.00
2022-11-20T04:26:33.119Z,97.00
2022-11-20T04:29:02.761Z,96.90
2022-11-20T04:31:33.278Z,97.00
2022-11-20T04:34:05.845Z,97.40
2022-11-20T04:36:34.358Z,98.20
2022-11-20T04:39:04.927Z,97.40
2022-11-20T04:41:36.823Z,97.60
2022-11-20T04:44:05.937Z,97.80
2022-11-20T04:46:35.932Z,97.30
2022-11-20T04:49:03.773Z,97.70
2022-11-20T04:51:31.220Z,97.00
2022-11-20T04:53:58.693Z,96.70
2022-11-20T04:56:26.248Z,97.10
2022-11-20T04:58:53.792Z,97.00
2022-11-20T05:01:23.447Z,97.20
2022-11-20T05:03:51.534Z,97.60
2022-11-20T05:06:21.197Z,97.10
2022-11-20T05:08:48.737Z,97.50
2022-11-20T05:11:19.497Z,97.10
2022-11-20T05:13:47.419Z,97.60
2022-11-20T05:16:20.037Z,97.20
2022-11-20T05:18:48.332Z,97.60
2022-11-20T05:21:16.467Z,97.30
2022-11-20T05:23:44.934Z,97.30
2022-11-20T05:26:22.366Z,97.40
2022-11-20T05:28:50.995Z,98.00
2022-11-20T05:31:27.285Z,97.40
2022-11-20T05:33:56.771Z,98.00
2022-11-20T05:36:24.582Z,97.30
2022-11-20T05:38:55.488Z,97.30
2022-11-20T05:41:26.205Z,97.30
2022-11-20T05:43:53.754Z,97.30
2022-11-20T05:46:27.929Z,97.10
2022-11-20T05:48:57.214Z,97.50
2022-11-20T05:51:24.970Z,97.00
2022-11-20T05:53:52.361Z,97.00
2022-11-20T05:56:21.662Z,97.30
2022-11-20T05:58:50.139Z,97.40
2022-11-20T06:01:24.182Z,97.50
2022-11-20T06:03:52.198Z,98.10
2022-11-20T06:06:20.717Z,97.50
2022-11-20T06:08:49.166Z,97.50
2022-11-20T06:11:17.736Z,97.30
2022-11-20T06:13:45.752Z,97.60
2022-11-20T06:16:15.605Z,97.40
2022-11-20T06:18:43.730Z,97.70
2022-11-20T06:21:16.887Z,97.20
2022-11-20T06:23:46.194Z,97.50
2022-11-20T06:26:20.368Z,97.30
2022-11-20T06:28:48.321Z,97.60
2022-11-20T06:31:17.441Z,97.80
2022-11-20T06:33:45.481Z,97.50
2022-11-20T06:36:15.348Z,97.60
2022-11-20T06:38:43.874Z,97.50
2022-11-20T06:41:21.021Z,99.20
2022-11-20T06:46:18.708Z,96.60
2022-11-20T06:48:47.480Z,97.90
2022-11-20T06:51:16.101Z,98.20
2022-11-20T06:53:43.678Z,97.90
2022-11-20T06:56:11.246Z,99.20
2022-11-20T06:58:38.902Z,98.90
2022-11-20T07:01:08.900Z,98.40
2022-11-20T07:03:36.797Z,97.90
2022-11-20T07:08:33.978Z,96.70
2022-11-20T07:11:03.078Z,97.70
2022-11-20T07:13:31.983Z,97.50
2022-11-20T07:16:05.309Z,97.90
2022-11-20T07:18:32.895Z,98.60
2022-11-20T07:21:06.197Z,98.80
2022-11-20T07:23:33.820Z,99.00
2022-11-20T07:26:09.306Z,99.80
2022-11-20T07:28:37.899Z,98.70
2022-11-20T07:31:06.140Z,98.40
2022-11-20T07:33:33.889Z,99.10
2022-11-20T07:36:03.072Z,99.10
2022-11-20T07:38:30.749Z,97.10
2022-11-20T07:40:58.814Z,99.50
2022-11-20T07:43:26.804Z,98.70
2022-11-20T07:46:01.548Z,99.90
2022-11-20T07:48:29.553Z,98.50
2022-11-20T07:50:58.324Z,99.90
2022-11-20T07:53:26.238Z,99.90
2022-11-20T07:55:54.224Z,99.30
2022-11-20T07:58:22.811Z,99.90
2022-11-20T08:00:50.577Z,99.40
2022-11-20T08:03:24.324Z,99.80
2022-11-20T08:05:52.598Z,98.70
2022-11-20T08:08:20.229Z,99.70
2022-11-20T08:10:47.615Z,99.70
2022-11-20T08:13:33.423Z,98.90
2022-11-20T08:16:00.834Z,97.50
2022-11-20T08:18:32.695Z,97.50
2022-11-20T08:21:05.193Z,97.60
2022-11-20T08:23:32.769Z,98.50
2022-11-20T08:26:00.256Z,97.50
2022-11-20T08:28:27.734Z,97.50
2022-11-20T08:31:02.924Z,97.50
2022-11-20T08:33:30.850Z,98.10
2022-11-20T08:36:03.023Z,97.60
2022-11-20T08:38:30.986Z,98.30
2022-11-20T08:41:20.926Z,97.90
2022-11-20T08:43:48.754Z,97.90
2022-11-20T08:46:18.739Z,97.60
2022-11-20T08:48:46.584Z,97.80
2022-11-20T08:51:14.730Z,97.70
2022-11-20T08:53:42.508Z,97.70
2022-11-20T08:56:13.839Z,97.30
2022-11-20T08:59:16.023Z,98.10
2022-11-20T09:01:30.374Z,98.30
2022-11-20T09:03:58.341Z,97.80
2022-11-20T09:06:25.768Z,97.60
2022-11-20T09:08:54.304Z,97.60
2022-11-20T09:11:22.374Z,97.90
2022-11-20T09:13:50.260Z,97.90
2022-11-20T09:16:17.640Z,97.50
2022-11-20T09:18:45.062Z,97.40
2022-11-20T09:21:14.068Z,97.90
2022-11-20T09:23:41.702Z,98.20
2022-11-20T09:26:12.764Z,97.30
2022-11-20T09:28:40.539Z,98.20
2022-11-20T09:31:22.628Z,97.30
2022-11-20T09:33:50.222Z,98.60
2022-11-20T09:36:19.663Z,97.50
2022-11-20T09:38:47.803Z,98.20
2022-11-20T09:41:34.073Z,98.00
2022-11-20T09:44:27.482Z,99.00
2022-11-20T09:47:23.854Z,98.00
2022-11-20T09:50:00.711Z,98.20
2022-11-20T09:52:36.889Z,98.20
2022-11-20T09:55:09.074Z,97.20
2022-11-20T09:57:40.218Z,97.60
2022-11-20T10:00:15.472Z,97.80
2022-11-20T10:02:45.874Z,97.90
2022-11-20T10:05:19.780Z,98.10
2022-11-20T10:08:18.218Z,97.80
2022-11-20T10:10:53.694Z,98.00
2022-11-20T10:13:27.135Z,97.70
2022-11-20T10:15:59.928Z,97.50
2022-11-20T10:18:33.698Z,96.70
2022-11-20T10:21:18.755Z,97.60
2022-11-20T10:24:37.776Z,97.70
2022-11-20T10:27:22.843Z,98.00
2022-11-20T10:30:08.108Z,98.10
2022-11-20T10:32:55.551Z,97.80
2022-11-20T10:35:34.946Z,98.30
2022-11-20T10:38:06.508Z,97.90
2022-11-20T10:40:45.155Z,97.60
2022-11-20T10:43:34.450Z,97.50
2022-11-20T10:46:18.132Z,97.80
2022-11-20T10:48:47.037Z,97.70
2022-11-20T10:51:41.567Z,97.80
2022-11-20T10:54:42.097Z,97.60
2022-11-20T10:57:40.374Z,97.60
2022-11-20T11:00:12.416Z,97.60
2022-11-20T11:02:52.388Z,97.10
2022-11-20T11:05:38.610Z,97.40
2022-11-20T11:08:12.848Z,97.40
2022-11-20T11:10:49.034Z,97.40
2022-11-20T11:13:28.859Z,96.20
2022-11-20T11:15:57.282Z,97.10
2022-11-20T11:18:33.258Z,96.70
2022-11-20T11:21:03.760Z,97.50
2022-11-20T11:23:43.081Z,97.00
2022-11-20T11:26:24.662Z,97.90
2022-11-20T11:29:00.105Z,97.90
2022-11-20T11:31:29.893Z,97.50
2022-11-20T11:34:14.562Z,97.20
2022-11-20T11:36:43.045Z,97.40
2022-11-20T11:39:17.366Z,97.50
2022-11-20T11:41:45.160Z,97.60
2022-11-20T11:44:38.589Z,96.80
2022-11-20T11:47:12.338Z,97.20
2022-11-20T11:49:39.836Z,97.50
2022-11-20T11:52:14.987Z,97.00
2022-11-20T11:54:56.173Z,96.50
2022-11-20T11:57:53.705Z,98.30
2022-11-20T12:00:23.139Z,97.80
2022-11-20T12:03:12.462Z,97.60
2022-11-20T12:05:50.489Z,97.90
2022-11-20T12:08:41.170Z,98.00
2022-11-20T12:11:28.032Z,98.20
2022-11-20T12:13:59.482Z,97.80
2022-11-20T12:16:26.893Z,97.50
2022-11-20T12:18:54.728Z,96.80
2022-11-20T12:21:26.716Z,96.90
2022-11-20T12:24:16.126Z,97.30
2022-11-20T12:27:03.476Z,97.60
2022-11-20T12:29:51.223Z,96.50
2022-11-20T12:32:40.098Z,97.50
2022-11-20T12:35:33.420Z,97.80
2022-11-20T12:38:38.147Z,98.00
2022-11-20T12:41:49.045Z,97.70
2022-11-20T12:45:07.736Z,97.50
2022-11-20T12:47:51.497Z,97.70
2022-11-20T12:53:58.911Z,97.70
2022-11-20T12:56:58.296Z,97.60
2022-11-20T12:59:54.556Z,97.80
2022-11-20T13:02:34.555Z,97.90
2022-11-20T13:05:10.920Z,97.90
2022-11-20T13:07:39.325Z,97.50
2022-11-20T13:10:21.765Z,97.30
2022-11-20T13:13:01.289Z,97.90
2022-11-20T13:15:44.028Z,97.70
2022-11-20T13:18:12.723Z,97.30
2022-11-20T13:20:45.591Z,97.60
2022-11-20T13:23:23.606Z,97.70
2022-11-20T13:25:51.092Z,97.30
2022-11-20T13:28:18.740Z,96.90
2022-11-20T13:30:54.680Z,96.70
2022-11-20T13:33:38.756Z,97.70
2022-11-20T13:36:26.696Z,97.70
2022-11-20T13:38:56.359Z,97.70
2022-11-20T13:41:33.211Z,97.50
2022-11-20T13:44:24.376Z,97.50
2022-11-20T13:46:52.071Z,97.50
2022-11-20T13:49:24.842Z,97.40
2022-11-20T13:51:57.708Z,97.90
2022-11-20T13:54:52.577Z,97.40
2022-11-20T13:57:32.511Z,97.80
2022-11-20T14:00:22.822Z,97.80
2022-11-20T14:03:06.095Z,97.60
2022-11-20T14:06:00.205Z,97.80
2022-11-20T14:08:48.916Z,97.80
2022-11-20T14:11:22.181Z,98.00
2022-11-20T14:14:16.289Z,97.40
2022-11-20T14:16:46.884Z,97.70
2022-11-20T14:19:20.419Z,96.90
2022-11-20T14:21:55.546Z,98.20
2022-11-20T14:24:25.933Z,97.10
2022-11-20T14:26:54.061Z,97.80
2022-11-20T14:29:27.019Z,97.70
2022-11-20T14:31:56.640Z,97.60
2022-11-20T14:34:30.312Z,97.30
2022-11-20T14:37:01.592Z,98.20
2022-11-20T14:39:35.230Z,98.10
2022-11-20T14:42:05.491Z,98.90
2022-11-20T14:44:38.773Z,97.50
2022-11-20T14:47:06.945Z,97.80
2022-11-20T14:49:34.741Z,97.80
2022-11-20T14:52:10.750Z,97.00
2022-11-20T14:54:50.705Z,97.80
2022-11-20T14:57:35.989Z,97.80
2022-11-20T15:00:20.492Z,98.00
2022-11-20T15:02:50.049Z,98.10
2022-11-20T15:05:19.751Z,97.50
2022-11-20T15:07:49.735Z,97.60
2022-11-20T15:10:28.403Z,97.60
2022-11-20T15:13:01.079Z,97.80
2022-11-20T15:15:48.841Z,97.70
2022-11-20T15:18:22.031Z,97.90
2022-11-20T15:20:50.273Z,98.30
2022-11-20T15:23:19.620Z,97.80
2022-11-20T15:25:49.400Z,97.90
2022-11-20T15:28:33.296Z,97.50
2022-11-20T15:31:03.264Z,97.90
2022-11-20T15:33:31.871Z,97.60
2022-11-20T15:35:59.715Z,97.50
2022-11-20T15:38:27.088Z,97.20
2022-11-20T15:40:54.458Z,97.60
2022-11-20T15:43:21.852Z,97.20
2022-11-20T15:46:01.034Z,97.40
2022-11-20T15:48:37.052Z,98.00
2022-11-20T15:51:27.410Z,98.50
2022-11-20T15:53:56.604Z,98.30
2022-11-20T15:56:24.381Z,98.60
2022-11-20T15:58:51.872Z,99.90
2022-11-20T16:01:22.909Z,98.50
2022-11-20T16:03:50.681Z,98.20
2022-11-20T16:06:18.416Z,99.20
2022-11-20T16:08:46.593Z,99.20
2022-11-20T16:11:15.519Z,98.70
2022-11-20T16:14:01.978Z,97.90
2022-11-20T16:16:31.465Z,97.70
2022-11-20T16:18:58.872Z,97.60
2022-11-20T16:21:32.152Z,97.70
2022-11-20T16:24:01.310Z,97.60
2022-11-20T16:26:29.474Z,98.30
2022-11-20T16:28:57.035Z,97.90
2022-11-20T16:31:24.558Z,97.80
2022-11-20T16:33:53.727Z,97.80
2022-11-20T16:36:22.873Z,98.20
2022-11-20T16:38:54.997Z,98.50
2022-11-20T16:41:23.417Z,98.90
2022-11-20T16:43:53.824Z,98.30
2022-11-20T16:46:23.380Z,98.30
2022-11-20T16:49:14.399Z,98.90
2022-11-20T16:51:42.925Z,99.50
2022-11-20T16:54:10.985Z,98.60
2022-11-20T16:56:39.325Z,98.60
2022-11-20T16:59:07.462Z,98.70
2022-11-20T17:01:38.642Z,98.70
2022-11-20T17:04:07.325Z,99.40
2022-11-20T17:06:37.653Z,99.60
2022-11-20T17:09:05.363Z,99.30
2022-11-20T17:11:33.718Z,99.20
2022-11-20T17:14:07.452Z,99.20
2022-11-20T17:16:36.355Z,99.60
2022-11-20T17:19:05.502Z,99.60
2022-11-20T17:21:38.153Z,99.90
2022-11-20T17:24:14.752Z,99.90
2022-11-20T17:26:43.908Z,99.90
2022-11-20T17:29:18.449Z,99.10
2022-11-20T17:31:46.434Z,99.90
2022-11-20T17:34:16.704Z,99.90
2022-11-20T17:36:52.691Z,99.90
2022-11-20T17:39:22.994Z,99.90
2022-11-20T17:42:10.382Z,99.90
2022-11-20T17:44:37.968Z,99.90
2022-11-20T17:47:05.848Z,99.90
2022-11-20T17:52:25.675Z,99.10
2022-11-20T17:54:58.065Z,99.50
2022-11-20T17:57:45.404Z,99.90
2022-11-20T18:00:25.246Z,99.90
2022-11-20T18:02:52.758Z,99.90
2022-11-20T18:05:20.210Z,99.90
2022-11-20T18:07:47.701Z,99.90
2022-11-20T18:10:15.266Z,99.90
2022-11-20T18:12:43.953Z,99.90
2022-11-20T18:15:11.621Z,99.90
2022-11-20T18:17:39.048Z,99.90
2022-11-20T18:22:56.938Z,99.90
2022-11-20T18:25:24.387Z,99.90
2022-11-20T18:27:51.906Z,99.90
2022-11-20T18:30:19.997Z,99.90
2022-11-20T18:32:49.980Z,99.90
2022-11-20T18:35:17.826Z,99.90
2022-11-20T18:37:47.803Z,99.90
2022-11-20T18:40:20.285Z,99.90
2022-11-20T18:43:06.708Z,99.90
2022-11-20T18:45:34.465Z,99.90
2022-11-20T18:48:02.304Z,99.90
2022-11-20T18:50:29.923Z,99.90
2022-11-20T18:52:57.820Z,99.90
2022-11-20T18:55:26.094Z,99.90
2022-11-20T18:57:55.346Z,99.90
2022-11-20T19:00:23.481Z,99.90
2022-11-20T19:02:54.379Z,99.90
2022-11-20T19:12:59.410Z,99.90
2022-11-20T19:26:39.068Z,99.90
2022-11-20T19:46:54.623Z,99.90
2022-11-20T19:53:20.285Z,99.90
2022-11-20T19:55:58.781Z,99.90
2022-11-20T19:58:31.477Z,99.90
2022-11-20T20:04:23.342Z,99.90
2022-11-20T20:10:20.495Z,99.90
2022-11-20T20:13:16.690Z,99.90
2022-11-20T20:19:04.153Z,99.90
2022-11-20T20:21:33.290Z,99.90
2022-11-20T20:24:00.847Z,99.90
2022-11-20T20:26:30.546Z,99.90
2022-11-20T20:28:58.772Z,99.90
2022-11-20T20:31:29.285Z,99.90
2022-11-20T20:33:57.104Z,99.90
2022-11-20T20:36:25.396Z,99.90
2022-11-20T20:38:54.261Z,99.90
2022-11-20T20:41:23.569Z,99.90
2022-11-20T20:44:10.672Z,99.90
2022-11-20T20:46:38.170Z,99.90
2022-11-20T20:49:06.244Z,99.90
2022-11-20T20:51:33.841Z,99.90
2022-11-20T20:54:01.261Z,99.90
2022-11-20T20:56:28.631Z,99.90
2022-11-20T20:58:56.249Z,99.90
2022-11-20T21:01:28.554Z,99.90
2022-11-20T21:03:56.872Z,99.90
2022-11-20T21:06:24.753Z,99.90
2022-11-20T21:08:52.552Z,99.90
2022-11-20T21:11:20.621Z,99.90
2022-11-20T21:13:49.112Z,99.90
2022-11-20T21:16:18.358Z,99.90
2022-11-20T21:18:46.198Z,99.90
2022-11-20T21:21:34.022Z,99.90
2022-11-20T21:24:02.266Z,99.90
2022-11-20T21:26:30.002Z,99.90
2022-11-20T21:28:57.710Z,99.90
2022-11-20T21:31:26.727Z,99.90
2022-11-20T21:33:55.553Z,99.90
2022-11-20T21:36:25.687Z,99.90
2022-11-20T21:38:54.967Z,99.90
2022-11-20T21:41:23.772Z,99.90
2022-11-20T21:44:16.306Z,99.90
2022-11-20T21:46:44.718Z,99.90
2022-11-20T21:49:12.639Z,99.90
2022-11-20T21:51:40.253Z,99.90
2022-11-20T21:54:09.745Z,99.90
2022-11-20T21:56:37.116Z,99.90
2022-11-20T21:59:04.550Z,99.90
2022-11-20T22:01:32.103Z,99.90
2022-11-20T22:04:01.825Z,99.90
2022-11-20T22:06:33.864Z,99.90
2022-11-20T22:09:02.188Z,99.90
2022-11-20T22:11:29.704Z,99.90
2022-11-20T22:14:16.105Z,99.90
2022-11-20T22:16:43.578Z,99.90
2022-11-20T22:19:11.045Z,99.90
2022-11-20T22:21:40.810Z,99.90
2022-11-20T22:24:12.365Z,99.90
2022-11-20T22:26:40.682Z,99.90
2022-11-20T22:29:12.518Z,99.90
2022-11-20T22:31:39.882Z,99.90
2022-11-20T22:34:10.038Z,99.90
2022-11-20T22:36:38.002Z,99.90
2022-11-20T22:39:06.047Z,99.90
2022-11-20T22:41:33.842Z,99.90
2022-11-20T22:44:03.471Z,99.90
2022-11-20T22:46:35.827Z,99.90
2022-11-20T22:49:06.147Z,99.90
2022-11-20T22:51:36.301Z,99.90
2022-11-20T22:54:04.117Z,99.90
2022-11-20T22:56:31.582Z,99.90
2022-11-20T22:58:58.963Z,99.90
2022-11-20T23:01:28.732Z,99.90
2022-11-20T23:04:07.198Z,99.90
2022-11-20T23:06:34.655Z,99.90
2022-11-20T23:09:04.184Z,99.90
2022-11-20T23:11:32.140Z,99.90
2022-11-20T23:14:04.554Z,99.90
2022-11-20T23:16:33.409Z,99.90
2022-11-20T23:19:12.488Z,99.90
2022-11-20T23:21:41.094Z,99.90
2022-11-20T23:24:09.698Z,99.90
2022-11-20T23:26:39.715Z,99.90
2022-11-20T23:29:07.331Z,99.90
2022-11-20T23:31:36.074Z,99.90
2022-11-20T23:34:03.674Z,99.90
2022-11-20T23:36:31.110Z,99.90
2022-11-20T23:38:58.525Z,99.90
2022-11-20T23:41:25.972Z,99.90
2022-11-20T23:43:53.963Z,99.90
2022-11-20T23:46:21.818Z,99.90
2022-11-20T23:48:49.467Z,99.90
2022-11-20T23:51:17.453Z,99.90
2022-11-20T23:53:44.794Z,99.90
2022-11-20T23:56:14.607Z,99.90
2022-11-20T23:58:42.748Z,99.90
